Terminal Aerodrome Forecast
Issued by NWS

Home | Current Version | Previous Version | Text Only | Print | Product List | Glossary On
Versions: 1 2 3 4 5 6 7 8 9 10 11 12 13 14 15 16 17 18 19 20 21 22 23 24 25 26 27
000
FTUS41 KPBZ 301600 AAC
TAFFKL
TAF AMD
KFKL 301601Z 3016/3112 28005KT P6SM SCT014 BKN022
      TEMPO 3016/3018 -SHRA BKN014
     FM302000 27005KT P6SM BKN035
     FM310800 23005KT P6SM OVC030
      AMD LTD TO CLD VIS AND WIND=

USA.gov is the U.S. government's official web portal to all federal, state and local government web resources and services.